sensor_id;sensor_type;location;lat;lon;timestamp;P1;durP1;ratioP1;P2;durP2;ratioP2
49934;SDS011;39898;41.762;26.200;2022-09-30T00:01:32;8.55;;;2.95;;
49934;SDS011;39898;41.762;26.200;2022-09-30T00:04:01;9.85;;;3.17;;
49934;SDS011;39898;41.762;26.200;2022-09-30T00:06:28;2.67;;;1.83;;
49934;SDS011;39898;41.762;26.200;2022-09-30T00:08:55;5.50;;;2.75;;
49934;SDS011;39898;41.762;26.200;2022-09-30T00:11:24;4.60;;;3.08;;
49934;SDS011;39898;41.762;26.200;2022-09-30T00:13:54;5.82;;;3.30;;
49934;SDS011;39898;41.762;26.200;2022-09-30T00:16:23;5.80;;;2.70;;
49934;SDS011;39898;41.762;26.200;2022-09-30T00:18:53;3.72;;;2.70;;
49934;SDS011;39898;41.762;26.200;2022-09-30T00:21:20;13.48;;;2.97;;
49934;SDS011;39898;41.762;26.200;2022-09-30T00:23:48;4.03;;;2.45;;
49934;SDS011;39898;41.762;26.200;2022-09-30T00:26:17;5.10;;;3.25;;
49934;SDS011;39898;41.762;26.200;2022-09-30T00:28:47;5.65;;;2.72;;
49934;SDS011;39898;41.762;26.200;2022-09-30T00:31:16;5.90;;;2.63;;
49934;SDS011;39898;41.762;26.200;2022-09-30T00:33:45;9.68;;;2.83;;
49934;SDS011;39898;41.762;26.200;2022-09-30T00:39:19;4.28;;;2.85;;
49934;SDS011;39898;41.762;26.200;2022-09-30T00:41:55;7.25;;;2.92;;
49934;SDS011;39898;41.762;26.200;2022-09-30T00:47:32;4.18;;;2.80;;
49934;SDS011;39898;41.762;26.200;2022-09-30T00:50:14;4.55;;;2.80;;
49934;SDS011;39898;41.762;26.200;2022-09-30T00:52:47;7.75;;;3.22;;
49934;SDS011;39898;41.762;26.200;2022-09-30T00:57:56;5.22;;;3.42;;
49934;SDS011;39898;41.762;26.200;2022-09-30T01:00:26;11.60;;;3.40;;
49934;SDS011;39898;41.762;26.200;2022-09-30T01:02:53;10.45;;;3.40;;
49934;SDS011;39898;41.762;26.200;2022-09-30T01:05:21;9.25;;;3.20;;
49934;SDS011;39898;41.762;26.200;2022-09-30T01:07:51;6.30;;;3.58;;
49934;SDS011;39898;41.762;26.200;2022-09-30T01:12:45;8.73;;;3.15;;
49934;SDS011;39898;41.762;26.200;2022-09-30T01:15:12;4.70;;;3.15;;
49934;SDS011;39898;41.762;26.200;2022-09-30T01:18:26;7.88;;;3.13;;
49934;SDS011;39898;41.762;26.200;2022-09-30T01:21:10;12.35;;;3.20;;
49934;SDS011;39898;41.762;26.200;2022-09-30T01:24:08;5.10;;;3.10;;
49934;SDS011;39898;41.762;26.200;2022-09-30T01:40:42;7.13;;;4.25;;
49934;SDS011;39898;41.762;26.200;2022-09-30T01:46:02;6.22;;;3.47;;
49934;SDS011;39898;41.762;26.200;2022-09-30T01:48:41;9.63;;;3.63;;
49934;SDS011;39898;41.762;26.200;2022-09-30T01:51:23;10.73;;;3.88;;
49934;SDS011;39898;41.762;26.200;2022-09-30T01:54:02;11.52;;;5.07;;
49934;SDS011;39898;41.762;26.200;2022-09-30T01:56:43;9.38;;;3.85;;
49934;SDS011;39898;41.762;26.200;2022-09-30T01:59:27;11.23;;;3.88;;
49934;SDS011;39898;41.762;26.200;2022-09-30T02:01:57;8.73;;;3.75;;
49934;SDS011;39898;41.762;26.200;2022-09-30T02:04:35;8.30;;;4.20;;
49934;SDS011;39898;41.762;26.200;2022-09-30T02:07:09;9.07;;;3.58;;
49934;SDS011;39898;41.762;26.200;2022-09-30T02:09:41;9.98;;;3.50;;
49934;SDS011;39898;41.762;26.200;2022-09-30T02:12:17;9.15;;;3.60;;
49934;SDS011;39898;41.762;26.200;2022-09-30T02:14:48;9.20;;;3.65;;
49934;SDS011;39898;41.762;26.200;2022-09-30T02:17:42;8.63;;;3.72;;
49934;SDS011;39898;41.762;26.200;2022-09-30T02:20:20;10.25;;;3.53;;
49934;SDS011;39898;41.762;26.200;2022-09-30T02:23:01;13.37;;;3.77;;
49934;SDS011;39898;41.762;26.200;2022-09-30T02:25:36;9.95;;;3.88;;
49934;SDS011;39898;41.762;26.200;2022-09-30T02:28:09;9.95;;;4.22;;
49934;SDS011;39898;41.762;26.200;2022-09-30T02:30:41;10.77;;;5.07;;
49934;SDS011;39898;41.762;26.200;2022-09-30T02:33:24;9.65;;;4.35;;
49934;SDS011;39898;41.762;26.200;2022-09-30T02:35:58;8.02;;;3.80;;
49934;SDS011;39898;41.762;26.200;2022-09-30T02:38:44;10.40;;;4.40;;
49934;SDS011;39898;41.762;26.200;2022-09-30T02:41:18;7.28;;;3.88;;
49934;SDS011;39898;41.762;26.200;2022-09-30T02:43:49;7.43;;;3.60;;
49934;SDS011;39898;41.762;26.200;2022-09-30T02:46:20;11.43;;;3.63;;
49934;SDS011;39898;41.762;26.200;2022-09-30T02:48:58;6.50;;;3.60;;
49934;SDS011;39898;41.762;26.200;2022-09-30T02:51:33;7.85;;;4.40;;
49934;SDS011;39898;41.762;26.200;2022-09-30T02:59:48;11.85;;;3.83;;
49934;SDS011;39898;41.762;26.200;2022-09-30T03:02:18;12.57;;;4.40;;
49934;SDS011;39898;41.762;26.200;2022-09-30T03:04:46;11.00;;;5.07;;
49934;SDS011;39898;41.762;26.200;2022-09-30T03:07:15;9.75;;;4.70;;
49934;SDS011;39898;41.762;26.200;2022-09-30T03:09:42;13.02;;;4.70;;
49934;SDS011;39898;41.762;26.200;2022-09-30T03:23:32;11.65;;;4.97;;
49934;SDS011;39898;41.762;26.200;2022-09-30T03:28:52;13.27;;;5.72;;
49934;SDS011;39898;41.762;26.200;2022-09-30T03:34:21;15.73;;;5.47;;
49934;SDS011;39898;41.762;26.200;2022-09-30T03:36:59;14.20;;;6.18;;
49934;SDS011;39898;41.762;26.200;2022-09-30T03:39:41;13.77;;;5.63;;
49934;SDS011;39898;41.762;26.200;2022-09-30T03:42:25;12.38;;;6.03;;
49934;SDS011;39898;41.762;26.200;2022-09-30T03:45:23;16.20;;;5.57;;
49934;SDS011;39898;41.762;26.200;2022-09-30T03:48:02;14.70;;;5.57;;
49934;SDS011;39898;41.762;26.200;2022-09-30T03:50:32;10.55;;;5.95;;
49934;SDS011;39898;41.762;26.200;2022-09-30T03:53:02;14.80;;;6.60;;
49934;SDS011;39898;41.762;26.200;2022-09-30T03:55:33;18.33;;;6.20;;
49934;SDS011;39898;41.762;26.200;2022-09-30T03:58:10;16.75;;;6.57;;
49934;SDS011;39898;41.762;26.200;2022-09-30T04:00:37;24.10;;;6.10;;
49934;SDS011;39898;41.762;26.200;2022-09-30T04:03:05;16.75;;;6.50;;
49934;SDS011;39898;41.762;26.200;2022-09-30T04:05:32;14.45;;;6.95;;
49934;SDS011;39898;41.762;26.200;2022-09-30T04:07:59;10.27;;;7.53;;
49934;SDS011;39898;41.762;26.200;2022-09-30T04:10:26;15.32;;;8.10;;
49934;SDS011;39898;41.762;26.200;2022-09-30T04:12:53;20.55;;;7.18;;
49934;SDS011;39898;41.762;26.200;2022-09-30T04:15:20;23.30;;;7.60;;
49934;SDS011;39898;41.762;26.200;2022-09-30T04:17:47;23.13;;;8.75;;
49934;SDS011;39898;41.762;26.200;2022-09-30T04:20:14;23.20;;;7.28;;
49934;SDS011;39898;41.762;26.200;2022-09-30T04:22:40;18.95;;;8.68;;
49934;SDS011;39898;41.762;26.200;2022-09-30T04:25:07;21.08;;;8.05;;
49934;SDS011;39898;41.762;26.200;2022-09-30T04:27:34;26.35;;;10.13;;
49934;SDS011;39898;41.762;26.200;2022-09-30T04:30:01;21.83;;;8.18;;
49934;SDS011;39898;41.762;26.200;2022-09-30T04:32:28;21.77;;;8.85;;
49934;SDS011;39898;41.762;26.200;2022-09-30T04:34:55;8.43;;;4.70;;
49934;SDS011;39898;41.762;26.200;2022-09-30T04:37:22;17.63;;;7.65;;
49934;SDS011;39898;41.762;26.200;2022-09-30T04:39:49;28.38;;;8.68;;
49934;SDS011;39898;41.762;26.200;2022-09-30T04:42:16;22.90;;;8.57;;
49934;SDS011;39898;41.762;26.200;2022-09-30T04:44:43;23.85;;;8.43;;
49934;SDS011;39898;41.762;26.200;2022-09-30T04:47:10;13.40;;;7.72;;
49934;SDS011;39898;41.762;26.200;2022-09-30T04:49:37;27.20;;;8.65;;
49934;SDS011;39898;41.762;26.200;2022-09-30T04:52:04;24.52;;;9.15;;
49934;SDS011;39898;41.762;26.200;2022-09-30T04:54:30;28.60;;;10.23;;
49934;SDS011;39898;41.762;26.200;2022-09-30T04:56:57;36.10;;;9.70;;
49934;SDS011;39898;41.762;26.200;2022-09-30T04:59:24;42.42;;;12.40;;
49934;SDS011;39898;41.762;26.200;2022-09-30T05:01:50;26.48;;;10.10;;
49934;SDS011;39898;41.762;26.200;2022-09-30T05:04:17;36.40;;;11.45;;
49934;SDS011;39898;41.762;26.200;2022-09-30T05:06:44;37.65;;;11.88;;
49934;SDS011;39898;41.762;26.200;2022-09-30T05:09:11;38.63;;;12.13;;
49934;SDS011;39898;41.762;26.200;2022-09-30T05:11:37;53.17;;;14.38;;
49934;SDS011;39898;41.762;26.200;2022-09-30T05:14:07;73.00;;;16.30;;
49934;SDS011;39898;41.762;26.200;2022-09-30T05:16:34;72.97;;;18.75;;
49934;SDS011;39898;41.762;26.200;2022-09-30T05:19:01;82.68;;;19.73;;
49934;SDS011;39898;41.762;26.200;2022-09-30T05:21:28;92.75;;;21.05;;
49934;SDS011;39898;41.762;26.200;2022-09-30T05:23:55;87.30;;;21.58;;
49934;SDS011;39898;41.762;26.200;2022-09-30T05:26:23;103.18;;;24.70;;
49934;SDS011;39898;41.762;26.200;2022-09-30T05:28:51;113.07;;;26.90;;
49934;SDS011;39898;41.762;26.200;2022-09-30T05:31:18;103.65;;;24.80;;
49934;SDS011;39898;41.762;26.200;2022-09-30T05:33:46;82.22;;;20.48;;
49934;SDS011;39898;41.762;26.200;2022-09-30T05:36:13;93.10;;;21.15;;
49934;SDS011;39898;41.762;26.200;2022-09-30T05:38:41;82.65;;;22.10;;
49934;SDS011;39898;41.762;26.200;2022-09-30T05:41:08;78.32;;;20.65;;
49934;SDS011;39898;41.762;26.200;2022-09-30T05:43:37;101.38;;;24.58;;
49934;SDS011;39898;41.762;26.200;2022-09-30T05:46:05;79.35;;;22.45;;
49934;SDS011;39898;41.762;26.200;2022-09-30T05:48:32;91.13;;;25.58;;
49934;SDS011;39898;41.762;26.200;2022-09-30T05:51:00;107.60;;;29.00;;
49934;SDS011;39898;41.762;26.200;2022-09-30T05:53:27;97.82;;;28.40;;
49934;SDS011;39898;41.762;26.200;2022-09-30T05:55:55;100.88;;;28.17;;
49934;SDS011;39898;41.762;26.200;2022-09-30T05:58:22;101.30;;;27.95;;
49934;SDS011;39898;41.762;26.200;2022-09-30T06:00:49;96.90;;;28.52;;
49934;SDS011;39898;41.762;26.200;2022-09-30T06:03:16;117.30;;;32.03;;
49934;SDS011;39898;41.762;26.200;2022-09-30T06:05:43;98.60;;;27.58;;
49934;SDS011;39898;41.762;26.200;2022-09-30T06:08:11;95.82;;;26.60;;
49934;SDS011;39898;41.762;26.200;2022-09-30T06:10:42;81.35;;;23.95;;
49934;SDS011;39898;41.762;26.200;2022-09-30T06:13:10;73.53;;;22.05;;
49934;SDS011;39898;41.762;26.200;2022-09-30T06:15:37;66.47;;;19.10;;
49934;SDS011;39898;41.762;26.200;2022-09-30T06:18:05;58.00;;;18.40;;
49934;SDS011;39898;41.762;26.200;2022-09-30T06:20:32;66.10;;;18.53;;
49934;SDS011;39898;41.762;26.200;2022-09-30T06:22:59;53.83;;;16.67;;
49934;SDS011;39898;41.762;26.200;2022-09-30T06:25:27;56.55;;;19.08;;
49934;SDS011;39898;41.762;26.200;2022-09-30T06:27:55;67.38;;;19.33;;
49934;SDS011;39898;41.762;26.200;2022-09-30T06:30:22;71.25;;;18.95;;
49934;SDS011;39898;41.762;26.200;2022-09-30T06:32:49;43.75;;;15.27;;
49934;SDS011;39898;41.762;26.200;2022-09-30T06:35:16;50.35;;;16.42;;
49934;SDS011;39898;41.762;26.200;2022-09-30T06:37:44;46.85;;;14.20;;
49934;SDS011;39898;41.762;26.200;2022-09-30T06:40:11;55.22;;;16.15;;
49934;SDS011;39898;41.762;26.200;2022-09-30T06:42:38;41.78;;;13.15;;
49934;SDS011;39898;41.762;26.200;2022-09-30T06:45:05;41.75;;;13.82;;
49934;SDS011;39898;41.762;26.200;2022-09-30T06:47:32;46.20;;;13.00;;
49934;SDS011;39898;41.762;26.200;2022-09-30T06:49:59;29.77;;;12.00;;
49934;SDS011;39898;41.762;26.200;2022-09-30T06:52:27;29.88;;;11.63;;
49934;SDS011;39898;41.762;26.200;2022-09-30T06:54:54;46.55;;;14.90;;
49934;SDS011;39898;41.762;26.200;2022-09-30T06:57:24;51.53;;;15.27;;
49934;SDS011;39898;41.762;26.200;2022-09-30T06:59:53;33.58;;;12.40;;
49934;SDS011;39898;41.762;26.200;2022-09-30T07:02:20;41.72;;;13.52;;
49934;SDS011;39898;41.762;26.200;2022-09-30T07:04:47;43.97;;;13.63;;
49934;SDS011;39898;41.762;26.200;2022-09-30T07:07:14;32.05;;;10.75;;
49934;SDS011;39898;41.762;26.200;2022-09-30T07:09:40;36.03;;;11.23;;
49934;SDS011;39898;41.762;26.200;2022-09-30T07:12:08;36.00;;;11.70;;
49934;SDS011;39898;41.762;26.200;2022-09-30T07:14:35;34.13;;;10.27;;
49934;SDS011;39898;41.762;26.200;2022-09-30T07:17:02;26.52;;;8.32;;
49934;SDS011;39898;41.762;26.200;2022-09-30T07:19:31;36.92;;;11.52;;
49934;SDS011;39898;41.762;26.200;2022-09-30T07:21:59;31.45;;;11.15;;
49934;SDS011;39898;41.762;26.200;2022-09-30T07:24:47;30.60;;;9.30;;
49934;SDS011;39898;41.762;26.200;2022-09-30T07:27:14;27.08;;;8.10;;
49934;SDS011;39898;41.762;26.200;2022-09-30T07:29:41;23.70;;;6.60;;
49934;SDS011;39898;41.762;26.200;2022-09-30T07:32:29;23.08;;;6.78;;
49934;SDS011;39898;41.762;26.200;2022-09-30T07:34:56;21.65;;;6.38;;
49934;SDS011;39898;41.762;26.200;2022-09-30T07:37:23;17.50;;;5.90;;
49934;SDS011;39898;41.762;26.200;2022-09-30T07:39:52;28.02;;;6.47;;
49934;SDS011;39898;41.762;26.200;2022-09-30T07:44:49;16.20;;;5.22;;
49934;SDS011;39898;41.762;26.200;2022-09-30T07:47:17;22.10;;;5.82;;
49934;SDS011;39898;41.762;26.200;2022-09-30T07:49:45;22.67;;;5.50;;
49934;SDS011;39898;41.762;26.200;2022-09-30T07:52:12;15.35;;;4.93;;
49934;SDS011;39898;41.762;26.200;2022-09-30T07:54:39;13.88;;;4.50;;
49934;SDS011;39898;41.762;26.200;2022-09-30T07:57:10;20.98;;;5.07;;
49934;SDS011;39898;41.762;26.200;2022-09-30T07:59:38;13.23;;;4.20;;
49934;SDS011;39898;41.762;26.200;2022-09-30T08:02:09;11.73;;;4.18;;
49934;SDS011;39898;41.762;26.200;2022-09-30T08:04:39;16.17;;;4.43;;
49934;SDS011;39898;41.762;26.200;2022-09-30T08:07:09;17.00;;;4.40;;
49934;SDS011;39898;41.762;26.200;2022-09-30T08:09:36;9.30;;;3.60;;
49934;SDS011;39898;41.762;26.200;2022-09-30T08:12:03;9.15;;;3.22;;
49934;SDS011;39898;41.762;26.200;2022-09-30T08:14:30;12.53;;;3.83;;
49934;SDS011;39898;41.762;26.200;2022-09-30T08:16:58;9.95;;;3.50;;
49934;SDS011;39898;41.762;26.200;2022-09-30T08:19:26;17.35;;;3.83;;
49934;SDS011;39898;41.762;26.200;2022-09-30T08:21:54;20.17;;;4.40;;
49934;SDS011;39898;41.762;26.200;2022-09-30T08:24:22;10.25;;;3.38;;
49934;SDS011;39898;41.762;26.200;2022-09-30T08:26:50;12.52;;;3.65;;
49934;SDS011;39898;41.762;26.200;2022-09-30T08:29:17;18.25;;;3.35;;
49934;SDS011;39898;41.762;26.200;2022-09-30T08:32:01;9.50;;;3.83;;
49934;SDS011;39898;41.762;26.200;2022-09-30T08:34:28;17.38;;;3.50;;
49934;SDS011;39898;41.762;26.200;2022-09-30T08:36:59;13.50;;;3.97;;
49934;SDS011;39898;41.762;26.200;2022-09-30T08:39:30;8.30;;;3.28;;
49934;SDS011;39898;41.762;26.200;2022-09-30T08:45:09;12.23;;;3.42;;
49934;SDS011;39898;41.762;26.200;2022-09-30T08:47:56;9.00;;;3.08;;
49934;SDS011;39898;41.762;26.200;2022-09-30T08:53:34;16.90;;;3.38;;
49934;SDS011;39898;41.762;26.200;2022-09-30T08:56:03;9.52;;;3.17;;
49934;SDS011;39898;41.762;26.200;2022-09-30T08:58:40;10.43;;;2.80;;
49934;SDS011;39898;41.762;26.200;2022-09-30T09:03:44;11.68;;;3.25;;
49934;SDS011;39898;41.762;26.200;2022-09-30T09:11:43;13.40;;;2.97;;
49934;SDS011;39898;41.762;26.200;2022-09-30T09:20:34;9.98;;;2.25;;
49934;SDS011;39898;41.762;26.200;2022-09-30T09:23:08;8.07;;;2.35;;
49934;SDS011;39898;41.762;26.200;2022-09-30T09:25:38;9.50;;;2.97;;
49934;SDS011;39898;41.762;26.200;2022-09-30T09:28:10;10.18;;;2.70;;
49934;SDS011;39898;41.762;26.200;2022-09-30T09:30:56;6.88;;;2.90;;
49934;SDS011;39898;41.762;26.200;2022-09-30T09:33:29;6.45;;;2.20;;
49934;SDS011;39898;41.762;26.200;2022-09-30T09:41:50;7.72;;;2.10;;
49934;SDS011;39898;41.762;26.200;2022-09-30T09:47:03;7.82;;;2.10;;
49934;SDS011;39898;41.762;26.200;2022-09-30T09:49:41;11.47;;;2.37;;
49934;SDS011;39898;41.762;26.200;2022-09-30T09:54:44;8.00;;;2.30;;
49934;SDS011;39898;41.762;26.200;2022-09-30T09:57:16;5.47;;;1.83;;
49934;SDS011;39898;41.762;26.200;2022-09-30T10:03:19;10.52;;;2.22;;
49934;SDS011;39898;41.762;26.200;2022-09-30T10:06:00;9.07;;;1.38;;
49934;SDS011;39898;41.762;26.200;2022-09-30T10:08:33;5.15;;;1.55;;
49934;SDS011;39898;41.762;26.200;2022-09-30T10:11:03;9.20;;;2.10;;
49934;SDS011;39898;41.762;26.200;2022-09-30T10:13:40;8.38;;;2.13;;
49934;SDS011;39898;41.762;26.200;2022-09-30T10:16:24;8.50;;;2.72;;
49934;SDS011;39898;41.762;26.200;2022-09-30T10:18:58;7.72;;;2.13;;
49934;SDS011;39898;41.762;26.200;2022-09-30T10:21:26;8.40;;;2.15;;
49934;SDS011;39898;41.762;26.200;2022-09-30T10:23:54;5.05;;;1.73;;
49934;SDS011;39898;41.762;26.200;2022-09-30T10:26:23;7.00;;;1.42;;
49934;SDS011;39898;41.762;26.200;2022-09-30T10:28:53;7.47;;;2.05;;
49934;SDS011;39898;41.762;26.200;2022-09-30T10:31:23;7.80;;;1.73;;
49934;SDS011;39898;41.762;26.200;2022-09-30T10:33:55;9.07;;;2.08;;
49934;SDS011;39898;41.762;26.200;2022-09-30T10:36:33;7.38;;;2.38;;
49934;SDS011;39898;41.762;26.200;2022-09-30T10:41:33;5.38;;;2.03;;
49934;SDS011;39898;41.762;26.200;2022-09-30T10:44:02;8.30;;;1.70;;
49934;SDS011;39898;41.762;26.200;2022-09-30T10:46:36;4.88;;;1.90;;
49934;SDS011;39898;41.762;26.200;2022-09-30T10:49:09;4.65;;;2.10;;
49934;SDS011;39898;41.762;26.200;2022-09-30T10:51:44;6.55;;;1.75;;
49934;SDS011;39898;41.762;26.200;2022-09-30T10:54:31;4.03;;;1.70;;
49934;SDS011;39898;41.762;26.200;2022-09-30T10:57:13;7.10;;;1.90;;
49934;SDS011;39898;41.762;26.200;2022-09-30T10:59:52;4.25;;;1.80;;
49934;SDS011;39898;41.762;26.200;2022-09-30T11:02:29;6.57;;;2.08;;
49934;SDS011;39898;41.762;26.200;2022-09-30T11:05:20;8.40;;;1.77;;
49934;SDS011;39898;41.762;26.200;2022-09-30T11:08:34;4.90;;;1.70;;
49934;SDS011;39898;41.762;26.200;2022-09-30T11:16:32;5.95;;;1.85;;
49934;SDS011;39898;41.762;26.200;2022-09-30T11:21:44;5.65;;;1.80;;
49934;SDS011;39898;41.762;26.200;2022-09-30T11:30:17;5.15;;;1.52;;
49934;SDS011;39898;41.762;26.200;2022-09-30T11:32:58;4.28;;;1.55;;
49934;SDS011;39898;41.762;26.200;2022-09-30T11:35:38;6.65;;;1.33;;
49934;SDS011;39898;41.762;26.200;2022-09-30T11:58:02;7.10;;;2.22;;
49934;SDS011;39898;41.762;26.200;2022-09-30T12:00:54;9.10;;;2.00;;
49934;SDS011;39898;41.762;26.200;2022-09-30T12:03:39;4.20;;;1.67;;
49934;SDS011;39898;41.762;26.200;2022-09-30T12:06:21;6.03;;;1.90;;
49934;SDS011;39898;41.762;26.200;2022-09-30T12:08:55;4.40;;;1.50;;
49934;SDS011;39898;41.762;26.200;2022-09-30T12:11:35;5.38;;;1.63;;
49934;SDS011;39898;41.762;26.200;2022-09-30T12:14:12;5.53;;;1.77;;
49934;SDS011;39898;41.762;26.200;2022-09-30T12:16:46;6.30;;;1.80;;
49934;SDS011;39898;41.762;26.200;2022-09-30T12:19:15;20.00;;;2.28;;
49934;SDS011;39898;41.762;26.200;2022-09-30T12:21:56;4.93;;;1.65;;
49934;SDS011;39898;41.762;26.200;2022-09-30T12:24:37;6.40;;;2.15;;
49934;SDS011;39898;41.762;26.200;2022-09-30T12:29:55;3.47;;;1.50;;
49934;SDS011;39898;41.762;26.200;2022-09-30T12:41:20;5.22;;;1.58;;
49934;SDS011;39898;41.762;26.200;2022-09-30T12:46:22;8.15;;;1.88;;
49934;SDS011;39898;41.762;26.200;2022-09-30T12:49:01;4.40;;;1.48;;
49934;SDS011;39898;41.762;26.200;2022-09-30T12:51:33;4.82;;;2.10;;
49934;SDS011;39898;41.762;26.200;2022-09-30T12:54:12;6.35;;;1.58;;
49934;SDS011;39898;41.762;26.200;2022-09-30T12:56:44;18.73;;;2.25;;
49934;SDS011;39898;41.762;26.200;2022-09-30T12:59:14;5.28;;;1.58;;
49934;SDS011;39898;41.762;26.200;2022-09-30T13:01:45;6.03;;;1.55;;
49934;SDS011;39898;41.762;26.200;2022-09-30T13:04:16;4.70;;;1.52;;
49934;SDS011;39898;41.762;26.200;2022-09-30T13:09:28;4.43;;;1.92;;
49934;SDS011;39898;41.762;26.200;2022-09-30T13:14:36;4.00;;;1.50;;
49934;SDS011;39898;41.762;26.200;2022-09-30T13:19:44;5.57;;;2.33;;
49934;SDS011;39898;41.762;26.200;2022-09-30T13:25:09;5.78;;;1.88;;
49934;SDS011;39898;41.762;26.200;2022-09-30T13:27:41;9.30;;;1.92;;
49934;SDS011;39898;41.762;26.200;2022-09-30T13:40:40;4.85;;;1.88;;
49934;SDS011;39898;41.762;26.200;2022-09-30T13:43:34;4.40;;;1.88;;
49934;SDS011;39898;41.762;26.200;2022-09-30T13:49:22;5.18;;;2.00;;
49934;SDS011;39898;41.762;26.200;2022-09-30T13:52:21;8.75;;;2.17;;
49934;SDS011;39898;41.762;26.200;2022-09-30T13:54:52;4.80;;;1.42;;
49934;SDS011;39898;41.762;26.200;2022-09-30T13:57:28;5.18;;;1.52;;
49934;SDS011;39898;41.762;26.200;2022-09-30T14:00:09;5.47;;;1.60;;
49934;SDS011;39898;41.762;26.200;2022-09-30T14:05:33;6.15;;;1.65;;
49934;SDS011;39898;41.762;26.200;2022-09-30T14:08:22;4.18;;;1.77;;
49934;SDS011;39898;41.762;26.200;2022-09-30T14:21:56;6.22;;;1.88;;
49934;SDS011;39898;41.762;26.200;2022-09-30T14:24:34;6.78;;;1.92;;
49934;SDS011;39898;41.762;26.200;2022-09-30T14:32:30;6.82;;;2.40;;
49934;SDS011;39898;41.762;26.200;2022-09-30T14:35:20;6.90;;;2.38;;
49934;SDS011;39898;41.762;26.200;2022-09-30T14:37:56;4.28;;;1.83;;
49934;SDS011;39898;41.762;26.200;2022-09-30T14:40:30;5.07;;;2.08;;
49934;SDS011;39898;41.762;26.200;2022-09-30T14:43:05;7.28;;;2.35;;
49934;SDS011;39898;41.762;26.200;2022-09-30T14:45:36;6.78;;;1.55;;
49934;SDS011;39898;41.762;26.200;2022-09-30T14:48:09;4.20;;;2.08;;
49934;SDS011;39898;41.762;26.200;2022-09-30T14:53:32;6.05;;;1.83;;
49934;SDS011;39898;41.762;26.200;2022-09-30T14:56:01;5.50;;;2.22;;
49934;SDS011;39898;41.762;26.200;2022-09-30T14:58:39;10.93;;;2.28;;
49934;SDS011;39898;41.762;26.200;2022-09-30T15:03:41;6.72;;;2.15;;
49934;SDS011;39898;41.762;26.200;2022-09-30T15:06:24;7.13;;;2.35;;
49934;SDS011;39898;41.762;26.200;2022-09-30T15:09:03;10.70;;;2.60;;
49934;SDS011;39898;41.762;26.200;2022-09-30T15:11:30;11.88;;;2.90;;
49934;SDS011;39898;41.762;26.200;2022-09-30T15:14:15;13.38;;;2.50;;
49934;SDS011;39898;41.762;26.200;2022-09-30T15:16:45;10.13;;;2.25;;
49934;SDS011;39898;41.762;26.200;2022-09-30T15:19:30;8.07;;;2.30;;
49934;SDS011;39898;41.762;26.200;2022-09-30T15:22:02;7.25;;;2.42;;
49934;SDS011;39898;41.762;26.200;2022-09-30T15:24:31;9.13;;;2.35;;
49934;SDS011;39898;41.762;26.200;2022-09-30T15:27:00;6.80;;;2.08;;
49934;SDS011;39898;41.762;26.200;2022-09-30T15:29:28;5.88;;;2.08;;
49934;SDS011;39898;41.762;26.200;2022-09-30T15:32:29;9.13;;;2.85;;
49934;SDS011;39898;41.762;26.200;2022-09-30T15:34:50;8.40;;;2.47;;
49934;SDS011;39898;41.762;26.200;2022-09-30T15:37:21;12.13;;;3.67;;
49934;SDS011;39898;41.762;26.200;2022-09-30T15:39:50;13.13;;;4.95;;
49934;SDS011;39898;41.762;26.200;2022-09-30T15:42:40;12.50;;;3.97;;
49934;SDS011;39898;41.762;26.200;2022-09-30T15:47:54;5.95;;;3.05;;
49934;SDS011;39898;41.762;26.200;2022-09-30T15:55:45;26.83;;;4.20;;
49934;SDS011;39898;41.762;26.200;2022-09-30T15:58:34;23.85;;;3.85;;
49934;SDS011;39898;41.762;26.200;2022-09-30T16:03:45;31.95;;;4.72;;
49934;SDS011;39898;41.762;26.200;2022-09-30T16:06:24;20.77;;;3.70;;
49934;SDS011;39898;41.762;26.200;2022-09-30T16:08:55;18.67;;;4.03;;
49934;SDS011;39898;41.762;26.200;2022-09-30T16:11:27;17.98;;;4.53;;
49934;SDS011;39898;41.762;26.200;2022-09-30T16:14:00;22.23;;;4.40;;
49934;SDS011;39898;41.762;26.200;2022-09-30T16:16:31;19.13;;;3.70;;
49934;SDS011;39898;41.762;26.200;2022-09-30T16:19:00;24.05;;;7.43;;
49934;SDS011;39898;41.762;26.200;2022-09-30T16:24:39;21.67;;;4.80;;
49934;SDS011;39898;41.762;26.200;2022-09-30T16:27:00;17.63;;;4.40;;
49934;SDS011;39898;41.762;26.200;2022-09-30T16:29:46;19.95;;;4.38;;
49934;SDS011;39898;41.762;26.200;2022-09-30T16:32:13;11.80;;;3.95;;
49934;SDS011;39898;41.762;26.200;2022-09-30T16:34:40;16.60;;;4.40;;
49934;SDS011;39898;41.762;26.200;2022-09-30T16:37:10;21.90;;;4.10;;
49934;SDS011;39898;41.762;26.200;2022-09-30T16:39:39;19.73;;;3.63;;
49934;SDS011;39898;41.762;26.200;2022-09-30T16:42:08;17.45;;;3.83;;
49934;SDS011;39898;41.762;26.200;2022-09-30T16:44:39;11.45;;;3.90;;
49934;SDS011;39898;41.762;26.200;2022-09-30T16:47:13;13.18;;;3.50;;
49934;SDS011;39898;41.762;26.200;2022-09-30T16:49:41;15.68;;;3.70;;
49934;SDS011;39898;41.762;26.200;2022-09-30T16:52:10;11.30;;;3.65;;
49934;SDS011;39898;41.762;26.200;2022-09-30T16:54:39;8.70;;;3.33;;
49934;SDS011;39898;41.762;26.200;2022-09-30T16:57:06;8.30;;;3.95;;
49934;SDS011;39898;41.762;26.200;2022-09-30T16:59:33;8.20;;;3.38;;
49934;SDS011;39898;41.762;26.200;2022-09-30T17:02:00;14.23;;;4.07;;
49934;SDS011;39898;41.762;26.200;2022-09-30T17:04:27;17.10;;;7.30;;
49934;SDS011;39898;41.762;26.200;2022-09-30T17:06:57;20.67;;;6.55;;
49934;SDS011;39898;41.762;26.200;2022-09-30T17:09:24;26.98;;;5.75;;
49934;SDS011;39898;41.762;26.200;2022-09-30T17:11:51;18.83;;;5.35;;
49934;SDS011;39898;41.762;26.200;2022-09-30T17:14:18;22.45;;;7.18;;
49934;SDS011;39898;41.762;26.200;2022-09-30T17:16:45;21.35;;;6.18;;
49934;SDS011;39898;41.762;26.200;2022-09-30T17:19:12;12.85;;;6.00;;
49934;SDS011;39898;41.762;26.200;2022-09-30T17:21:39;17.52;;;6.35;;
49934;SDS011;39898;41.762;26.200;2022-09-30T17:24:06;18.27;;;7.75;;
49934;SDS011;39898;41.762;26.200;2022-09-30T17:26:33;28.88;;;8.23;;
49934;SDS011;39898;41.762;26.200;2022-09-30T17:29:00;27.50;;;10.98;;
49934;SDS011;39898;41.762;26.200;2022-09-30T17:31:46;31.40;;;11.18;;
49934;SDS011;39898;41.762;26.200;2022-09-30T17:34:13;46.67;;;13.18;;
49934;SDS011;39898;41.762;26.200;2022-09-30T17:36:40;35.40;;;11.90;;
49934;SDS011;39898;41.762;26.200;2022-09-30T17:39:08;37.55;;;12.45;;
49934;SDS011;39898;41.762;26.200;2022-09-30T17:41:36;28.77;;;9.05;;
49934;SDS011;39898;41.762;26.200;2022-09-30T17:44:22;23.15;;;5.70;;
49934;SDS011;39898;41.762;26.200;2022-09-30T17:46:53;25.02;;;4.72;;
49934;SDS011;39898;41.762;26.200;2022-09-30T17:49:44;19.65;;;4.53;;
49934;SDS011;39898;41.762;26.200;2022-09-30T17:52:12;32.90;;;5.10;;
49934;SDS011;39898;41.762;26.200;2022-09-30T17:54:40;49.63;;;6.10;;
49934;SDS011;39898;41.762;26.200;2022-09-30T17:57:07;32.85;;;5.53;;
49934;SDS011;39898;41.762;26.200;2022-09-30T17:59:34;24.02;;;4.75;;
49934;SDS011;39898;41.762;26.200;2022-09-30T18:02:02;27.02;;;5.60;;
49934;SDS011;39898;41.762;26.200;2022-09-30T18:04:29;17.92;;;5.15;;
49934;SDS011;39898;41.762;26.200;2022-09-30T18:06:56;38.80;;;6.37;;
49934;SDS011;39898;41.762;26.200;2022-09-30T18:09:23;17.80;;;5.10;;
49934;SDS011;39898;41.762;26.200;2022-09-30T18:11:52;23.10;;;5.80;;
49934;SDS011;39898;41.762;26.200;2022-09-30T18:14:19;24.02;;;5.13;;